Terminal Aerodrome Forecast
Issued by NWS

Current Version | Previous Version | Text Only | Print | Product List | Glossary Off
Versions: 1 2 3 4 5 6 7 8 9 10 11 12 13 14 15 16 17 18 19 20 21 22 23 24 25 26 27 28 29 30 31 32 33

634
FTUS41 KRLX 171919 AAA
TAFCKB
TAF AMD
KCKB 171919Z 1719/1818 25012G18KT P6SM -SN OVC025
     FM172000 25012G18KT P6SM OVC025
     FM172200 28010G17KT P6SM BKN035
     FM180400 27005KT P6SM SCT035=

USA.gov is the U.S. government's official web portal to all federal, state and local government web resources and services.